Accueil
METAR-TAF:

METAR-TAF

Aéroports :

Base aérienne de Lechfeld

Lechfeld, Allemagne

latitude: 48-11N, longitude: 010-52E, altitude: 555 m

Observation

Le bulletin a été fait il y a 50 minutes, à 15:20 UTC
Vent 5 kt de est
Température -3°C
Humidité 74%
Pression 1022 hPa
Visibilité 10 km ou plus

METAR: ETSL 151520Z AUTO 08005KT 9999 // ////// M03/M07 Q1022 ///

Heure: 17:10 (16:10 UTC)

Prévision

Le bulletin a été fait il y a 29 heures et 2 minutes, à 11:08 UTC
Prévision valable du 14 à 11 UTC au 14 à 18 UTC
Vent 8 kt de est
Visibilité 10 km ou plus
Nuages fragmentés à une hauteur de 1200 ft
Probabilité 30%
du 14 à 11 UTC au 14 à 18 UTC
Vent 12 kt de est/nord-est
Visibilité: 1120 m
Nuages fragmentés à une hauteur de 600 ft
neige en grains

TAF: ETSL 141108Z 1411/1418 08008KT 9999 NSW BKN012 PROB30 1411/1418 06012KT 7000 SG BKN006 CANCEL 1120 BY ETGL

Observations et prévisions météorologiques de plus de 4000 aéroports (messages METAR et TAF).

Les stations disponibles sont représentées par des disques jaunes et rouges sur la carte.

Passer la souris dessus pour voir le nom de la station.

Cliquer dessus pour voir les observations et prévisions météorologiques.

Pour changer de carte: cliquez sur les boutons verts avec une croix noire pour zoomer, sur le bouton vert avec un tiret pour effectuer un zoom arrière, ou sur les flèches vertes pour les cartes adjacentes.


METAR-TAF: